Portada
METAR-TAF:

METAR-TAF

Aeropuertos :

Lanzarote, España

Aeropuerto de Lanzarote

latitud: 28-57N, longitud: 013-36W, altitud: 14 m

Observación

El informe se hizo hace 22 minutos, a las 13:30 UTC
Viento 18 kt del este
Temperatura 22°C
Humedad 83%
Presión 1015 hPa
Visibilidad 10 km o más
sin nubes por debajo de 1500 m y sin presencia de cumulonimbus.

METAR: GCRR 141330Z 08018KT CAVOK 22/19 Q1015

Hora: 14:52 (13:52 UTC)

Pronóstico

El informe se hizo hace 2 horas y 4 minutos, a las 11:48 UTC
Pronóstico válido del 14 a las 11 UTC al 15 a las 09 UTC
Viento 9 kt del norte-noreste
Visibilidad 10 km o más
Escasas nubes a una altura de 2000 ft
Temporalmente
del 14 a las 11 UTC al 14 a las 17 UTC
Viento 15 kt del este
Probabilidad 30% :
Temporalmente
del 14 a las 20 UTC al 15 a las 09 UTC
Viento 15 kt del norte con ráfagas de 25 kt

TAF: GCRR 141148Z 1411/1509 02009KT 9999 FEW020 TX28/1414Z TN20/1506Z TEMPO 1411/1417 08015KT PROB30 TEMPO 1420/1509 01015G25KT

Observaciones y pronósticos meteorológicos de más de 4000 aeropuertos (mensajes METAR y TAF).

Los puntos amarillos y rojos representan las estaciones disponibles.

Ponga el ratón en el punto deseado para ver el nombre de la estación.

Haga clic para ver las observaciones y los pronósticos meteorológicos.

Para cambiar el mapa : haga clic en los botones verdes con una cruz de color negro para hacer un zoom, en el botón verde con un guión para alejar o en las flechas verdes para mapas adyacentes.


METAR-TAF: